Airport View

Enter AWOS ICAO identifier for current METAR.

ex. KFNL

PANW 191856Z AUTO 19010KT 3SM -RA BR OVC007 09/08 A3022 RMK AO2 RAB56 CIG 004V010 SLP253 P0000 T00890078

19 Jun 2019 19:04

Frequency: 120.275

Phone: 907-693-3086

Other Area AWOS: PAJZ - PADL - PAIG - PFWS

TAF PADL 191742Z 1918/2018 VRB06KT P6SM OVC015 FM200000 17008KT P6SM SCT020 BKN050 FM201200 VRB03KT P6SM OVC015